Time;durP1;ratioP1;P1;durP2;ratioP2;P2;SDS_P1;SDS_P2;PMS_P1;PMS_P2;Temp;Humidity;BMP_temperature;BMP_pressure;BME280_temperature;BME280_humidity;BME280_pressure;Samples;Min_cycle;Max_cycle;Signal;HPM_P1;HPM_P2
2022/08/23 00:01:56;;;;;;;0.70;0.70;;;;;;;23.50;46.02;101187.81;5054646;28;20033;-72
2022/08/23 00:04:24;;;;;;;0.55;0.55;;;;;;;23.49;46.03;101191.63;5054693;28;20040;-72
2022/08/23 00:06:50;;;;;;;1.70;0.60;;;;;;;23.49;46.13;101192.47;5054267;28;20033;-72
2022/08/23 00:09:17;;;;;;;0.70;0.70;;;;;;;23.48;46.02;101195.44;5046211;28;20028;-71
2022/08/23 00:11:50;;;;;;;0.60;0.60;;;;;;;23.48;45.71;101193.53;5054016;28;20021;-72
2022/08/23 00:14:27;;;;;;;0.60;0.60;;;;;;;23.50;45.48;101185.09;5054209;28;20021;-71
2022/08/23 00:16:53;;;;;;;0.90;0.80;;;;;;;23.48;45.79;101188.06;5054509;28;20423;-72
2022/08/23 00:19:19;;;;;;;0.60;0.60;;;;;;;23.49;45.67;101189.72;5054108;28;20029;-72
2022/08/23 00:21:45;;;;;;;0.60;0.60;;;;;;;23.49;45.71;101191.63;5036034;28;20126;-72
2022/08/23 00:24:11;;;;;;;0.60;0.60;;;;;;;23.49;45.85;101195.19;5054107;28;20104;-72
2022/08/23 00:27:03;;;;;;;0.70;0.70;;;;;;;23.47;45.44;101193.78;5054666;28;20099;-72
2022/08/23 00:29:37;;;;;;;0.57;0.57;;;;;;;23.46;45.46;101200.31;5054154;28;20033;-72
2022/08/23 00:32:04;;;;;;;0.63;0.63;;;;;;;23.47;45.55;101201.97;5054228;28;20036;-72
2022/08/23 00:34:30;;;;;;;0.80;0.80;;;;;;;23.49;45.28;101207.97;5068650;28;20094;-72
2022/08/23 00:36:56;;;;;;;0.60;0.60;;;;;;;23.47;45.24;101204.69;5074433;28;20024;-72
2022/08/23 00:39:21;;;;;;;0.75;0.75;;;;;;;23.49;45.46;101216.16;5074923;28;20174;-72
2022/08/23 00:41:47;;;;;;;0.70;0.70;;;;;;;23.46;44.99;101209.34;5075733;28;20028;-72
2022/08/23 00:49:51;;;;;;;0.50;0.50;;;;;;;23.49;44.91;101213.44;5084491;28;20020;-72
2022/08/23 00:52:40;;;;;;;0.60;0.60;;;;;;;23.48;44.71;101217.25;5054995;28;20056;-72
2022/08/23 00:55:06;;;;;;;0.60;0.60;;;;;;;23.44;44.71;101220.50;5085648;28;20355;-72
2022/08/23 00:57:32;;;;;;;0.60;0.60;;;;;;;23.46;44.68;101216.66;5073976;28;20467;-72
2022/08/23 00:59:57;;;;;;;0.70;0.70;;;;;;;23.46;44.56;101216.66;5056006;28;20024;-73
2022/08/23 01:02:23;;;;;;;0.50;0.50;;;;;;;23.45;44.76;101218.56;5074279;28;20081;-72
2022/08/23 01:04:54;;;;;;;0.60;0.60;;;;;;;23.45;44.31;101213.13;5056459;28;20029;-71
2022/08/23 01:07:56;;;;;;;0.65;0.65;;;;;;;23.47;44.36;101221.06;5056312;28;20074;-71
2022/08/23 01:10:30;;;;;;;1.10;0.60;;;;;;;23.44;43.96;101220.50;5051331;28;20067;-71
2022/08/23 01:13:00;;;;;;;;;;;;;;;23.61;43.99;101223.16;5057257;28;20078;-70
2022/08/23 01:15:29;;;;;;;0.55;0.55;;;;;;;23.50;44.45;101221.38;5073555;28;20407;-72
2022/08/23 01:18:01;;;;;;;0.60;0.60;;;;;;;23.46;44.21;101224.84;5056344;28;20039;-72
2022/08/23 01:20:27;;;;;;;0.65;0.55;;;;;;;23.47;44.43;101226.50;5073360;28;20036;-72
2022/08/23 01:23:00;;;;;;;0.60;0.60;;;;;;;23.41;44.08;101226.44;5055647;28;20078;-72
2022/08/23 01:25:27;;;;;;;0.70;0.70;;;;;;;23.44;43.86;101230.59;5056048;28;20028;-72
2022/08/23 01:27:53;;;;;;;0.50;0.50;;;;;;;23.43;44.16;101237.94;5073589;28;20028;-72
2022/08/23 01:30:22;;;;;;;0.68;0.63;;;;;;;23.44;43.85;101241.50;5073539;28;20024;-72
2022/08/23 01:32:52;;;;;;;0.60;0.60;;;;;;;23.43;44.13;101242.56;5074190;28;20033;-72
2022/08/23 01:35:18;;;;;;;0.50;0.50;;;;;;;23.42;43.72;101236.28;5055555;28;20075;-72
2022/08/23 01:37:44;;;;;;;0.60;0.60;;;;;;;23.39;43.91;101235.97;5074125;28;20095;-72
2022/08/23 01:40:10;;;;;;;0.50;0.50;;;;;;;23.42;44.13;101236.28;5073895;28;20489;-72
2022/08/23 01:42:38;;;;;;;1.67;0.60;;;;;;;23.41;43.82;101237.34;5076156;28;20513;-72
2022/08/23 01:45:04;;;;;;;0.40;0.40;;;;;;;23.43;44.01;101248.03;5077436;28;20025;-72
2022/08/23 01:47:30;;;;;;;0.60;0.60;;;;;;;23.41;43.53;101234.63;5077570;28;20028;-72
2022/08/23 01:49:56;;;;;;;0.50;0.50;;;;;;;23.41;43.44;101244.72;5077428;28;20032;-72
2022/08/23 01:52:21;;;;;;;0.50;0.50;;;;;;;23.43;43.33;101248.03;5077377;28;20450;-72
2022/08/23 01:54:47;;;;;;;0.57;0.50;;;;;;;23.41;43.62;101244.72;5077116;28;20480;-72
2022/08/23 01:57:12;;;;;;;0.60;0.60;;;;;;;23.43;43.74;101248.03;5025865;28;20155;-72
2022/08/23 01:59:38;;;;;;;0.50;0.50;;;;;;;23.41;43.62;101251.00;5077494;28;20416;-72
2022/08/23 02:02:03;;;;;;;0.50;0.50;;;;;;;23.42;43.76;101240.91;5077355;28;20021;-72
2022/08/23 02:04:29;;;;;;;0.45;0.45;;;;;;;23.40;43.44;101238.44;5077044;28;20379;-72
2022/08/23 02:06:54;;;;;;;0.30;0.30;;;;;;;23.40;43.36;101248.50;5076657;28;20039;-72
2022/08/23 02:09:20;;;;;;;0.30;0.30;;;;;;;23.40;43.26;101249.38;5077605;28;20029;-72
2022/08/23 02:11:46;;;;;;;0.50;0.50;;;;;;;23.40;43.18;101254.81;5077217;28;20385;-72
2022/08/23 02:14:14;;;;;;;0.73;0.73;;;;;;;23.37;43.35;101249.00;5077364;28;20055;-72
2022/08/23 02:16:43;;;;;;;0.98;0.40;;;;;;;23.38;42.92;101259.69;5077155;28;20025;-72
2022/08/23 02:19:10;;;;;;;0.50;0.50;;;;;;;23.38;43.01;101261.59;5059850;28;20112;-72
2022/08/23 02:21:36;;;;;;;0.50;0.50;;;;;;;23.37;42.93;101266.22;5077190;28;20032;-72
2022/08/23 02:24:04;;;;;;;0.50;0.50;;;;;;;23.37;43.26;101263.50;5077160;28;20036;-72
2022/08/23 02:26:30;;;;;;;0.50;0.50;;;;;;;23.37;42.81;101271.69;5077006;28;20036;-72
2022/08/23 02:28:55;;;;;;;0.50;0.50;;;;;;;23.38;43.02;101273.31;5076753;28;20033;-72
2022/08/23 02:31:21;;;;;;;0.47;0.47;;;;;;;23.37;42.68;101271.69;5077025;28;20070;-72
2022/08/23 02:33:47;;;;;;;0.50;0.50;;;;;;;23.38;42.45;101272.50;5076593;28;20467;-72
2022/08/23 02:36:13;;;;;;;0.50;0.50;;;;;;;23.35;42.81;101271.13;5077160;28;20352;-72
2022/08/23 02:38:38;;;;;;;0.60;0.60;;;;;;;23.36;42.40;101278.19;5076910;28;20116;-72
2022/08/23 02:41:04;;;;;;;0.50;0.50;;;;;;;23.37;42.04;101277.13;5077209;28;20031;-72
2022/08/23 02:43:32;;;;;;;0.50;0.50;;;;;;;23.38;42.23;101276.03;5077599;28;20039;-72
2022/08/23 02:45:58;;;;;;;0.73;0.57;;;;;;;23.38;42.13;101272.50;5089857;28;20024;-72
2022/08/23 02:48:24;;;;;;;0.40;0.40;;;;;;;23.35;42.22;101279.28;5082873;28;20104;-72
2022/08/23 02:50:49;;;;;;;0.40;0.40;;;;;;;23.37;42.23;101277.13;5083178;28;20486;-72
2022/08/23 02:53:16;;;;;;;0.40;0.40;;;;;;;23.35;42.23;101273.84;5086115;28;20020;-72
2022/08/23 02:55:44;;;;;;;0.50;0.50;;;;;;;23.36;41.91;101277.38;5087707;28;20024;-72
2022/08/23 02:58:10;;;;;;;0.60;0.60;;;;;;;23.35;42.20;101273.84;5069275;28;20029;-72
2022/08/23 03:00:37;;;;;;;0.57;0.57;;;;;;;23.36;41.86;101286.38;5080125;28;20024;-72
2022/08/23 03:03:03;;;;;;;0.43;0.43;;;;;;;23.32;42.18;101287.97;5076656;28;20052;-72
2022/08/23 03:05:30;;;;;;;0.50;0.50;;;;;;;23.31;42.08;101289.03;5076544;28;20024;-73
2022/08/23 03:07:55;;;;;;;0.30;0.30;;;;;;;23.38;41.93;101286.94;5076828;28;20028;-72
2022/08/23 03:10:21;;;;;;;0.50;0.50;;;;;;;23.41;41.84;101289.19;5076857;28;20032;-72
2022/08/23 03:12:46;;;;;;;0.45;0.45;;;;;;;23.42;41.90;101287.28;5076745;28;20032;-72
2022/08/23 03:15:12;;;;;;;0.60;0.60;;;;;;;23.46;42.10;101290.31;5076950;28;20025;-72
2022/08/23 03:17:37;;;;;;;0.50;0.50;;;;;;;23.42;42.06;101290.84;5058833;28;20051;-72
2022/08/23 03:20:03;;;;;;;0.50;0.50;;;;;;;23.48;42.43;101288.19;5077086;28;20067;-72
2022/08/23 03:22:29;;;;;;;0.55;0.47;;;;;;;23.49;42.57;101287.09;5076850;28;20550;-72
2022/08/23 03:24:54;;;;;;;0.40;0.40;;;;;;;23.50;41.96;101286.03;5076951;28;20028;-72
2022/08/23 03:27:20;;;;;;;0.50;0.50;;;;;;;23.52;42.22;101289.31;5075880;28;20099;-72
2022/08/23 03:29:45;;;;;;;0.50;0.50;;;;;;;23.53;42.30;101282.81;5058374;28;20063;-72
2022/08/23 03:32:12;;;;;;;0.55;0.55;;;;;;;23.56;42.26;101285.00;5076286;28;20024;-71
2022/08/23 03:34:37;;;;;;;0.40;0.40;;;;;;;23.56;42.24;101290.47;5075392;28;20048;-73
2022/08/23 03:37:03;;;;;;;0.40;0.40;;;;;;;23.59;42.26;101288.06;5076067;28;20472;-72
2022/08/23 03:39:29;;;;;;;0.50;0.50;;;;;;;23.59;41.95;101288.06;5075742;28;20028;-72
2022/08/23 03:41:54;;;;;;;0.50;0.50;;;;;;;23.60;42.27;101286.97;5075763;28;20025;-72
2022/08/23 03:44:20;;;;;;;0.50;0.50;;;;;;;23.65;41.82;101294.41;5075976;28;20067;-72
2022/08/23 03:46:45;;;;;;;0.50;0.50;;;;;;;23.65;41.73;101297.16;5075425;28;20515;-72
2022/08/23 03:49:11;;;;;;;0.40;0.40;;;;;;;23.65;41.98;101299.88;5075698;28;20024;-72
2022/08/23 03:51:36;;;;;;;0.50;0.50;;;;;;;23.66;41.77;101300.69;5075421;28;20028;-72
2022/08/23 03:54:02;;;;;;;0.40;0.40;;;;;;;23.66;41.71;101301.50;5074941;28;20016;-72
2022/08/23 03:56:30;;;;;;;0.60;0.57;;;;;;;23.69;41.38;101301.00;5075486;28;20052;-73
2022/08/23 03:58:57;;;;;;;0.50;0.50;;;;;;;23.67;41.51;101308.63;5075428;28;20115;-72
2022/08/23 04:01:22;;;;;;;0.75;0.65;;;;;;;23.68;41.44;101315.75;5075282;28;20071;-72
2022/08/23 04:03:48;;;;;;;0.52;0.52;;;;;;;23.69;41.76;101311.94;5075636;28;20028;-72
2022/08/23 04:06:14;;;;;;;0.55;0.55;;;;;;;23.69;41.45;101306.47;5074222;28;20090;-72
2022/08/23 04:08:39;;;;;;;0.60;0.60;;;;;;;23.70;40.98;101312.75;5074258;28;20351;-77
2022/08/23 04:11:05;;;;;;;0.70;0.70;;;;;;;23.71;41.56;101319.84;5074002;28;20050;-77
2022/08/23 04:13:30;;;;;;;0.70;0.60;;;;;;;23.71;41.74;101317.94;5073625;28;20051;-77
2022/08/23 04:15:56;;;;;;;0.60;0.60;;;;;;;23.67;41.78;101308.63;5074152;28;20070;-77
2022/08/23 04:18:22;;;;;;;0.40;0.40;;;;;;;23.75;41.11;101316.38;5074183;28;20407;-77
2022/08/23 04:20:48;;;;;;;0.68;0.60;;;;;;;23.76;41.44;101318.00;5074152;28;20027;-77
2022/08/23 04:23:14;;;;;;;0.50;0.50;;;;;;;23.76;41.31;101312.56;5073828;28;20471;-77
2022/08/23 04:25:42;;;;;;;0.60;0.60;;;;;;;23.74;41.46;101317.44;5074205;28;20021;-77
2022/08/23 04:28:07;;;;;;;0.82;0.60;;;;;;;23.73;41.96;101318.53;5056371;28;20037;-77
2022/08/23 04:30:33;;;;;;;0.70;0.70;;;;;;;23.72;41.70;101316.06;5055732;28;20449;-77
2022/08/23 04:33:00;;;;;;;0.52;0.52;;;;;;;23.75;41.66;101327.31;5073877;28;20103;-77
2022/08/23 04:35:25;;;;;;;0.57;0.57;;;;;;;23.76;41.74;101336.31;5039320;28;20115;-77
2022/08/23 04:37:52;;;;;;;0.52;0.52;;;;;;;23.76;41.84;101330.84;5074531;28;20016;-76
2022/08/23 04:43:01;;;;;;;0.60;0.60;;;;;;;23.72;42.04;101335.97;5074211;28;20067;-77
2022/08/23 04:45:27;;;;;;;0.70;0.70;;;;;;;23.78;41.87;101339.59;5074090;28;20029;-76
2022/08/23 04:47:53;;;;;;;0.73;0.73;;;;;;;23.76;42.08;101344.50;5057011;28;20033;-76
2022/08/23 04:50:18;;;;;;;0.70;0.70;;;;;;;23.79;42.18;101342.06;5073501;28;20040;-76
2022/08/23 04:52:44;;;;;;;0.75;0.70;;;;;;;23.77;42.41;101344.25;5073650;28;20029;-77
2022/08/23 04:55:09;;;;;;;0.85;0.85;;;;;;;23.73;42.32;101351.28;5073517;28;20036;-76
2022/08/23 04:57:35;;;;;;;0.80;0.80;;;;;;;23.74;42.52;101352.94;5073136;28;20424;-76
2022/08/23 05:00:01;;;;;;;0.70;0.70;;;;;;;23.78;42.43;101347.78;5074851;28;20105;-78
2022/08/23 05:02:27;;;;;;;0.60;0.60;;;;;;;23.75;42.72;101346.41;5075539;28;20032;-76
2022/08/23 05:04:55;;;;;;;0.50;0.50;;;;;;;23.83;42.69;101358.00;5073581;28;20109;-78
2022/08/23 05:07:21;;;;;;;0.63;0.63;;;;;;;23.85;42.48;101353.09;5075489;28;20100;-78
2022/08/23 05:09:46;;;;;;;0.80;0.80;;;;;;;23.88;42.58;101352.59;5073798;28;20024;-77
2022/08/23 05:12:12;;;;;;;0.60;0.60;;;;;;;23.93;42.95;101356.22;5075784;28;20024;-78
2022/08/23 05:14:37;;;;;;;0.80;0.80;;;;;;;23.88;43.15;101360.78;5074244;28;20035;-76
2022/08/23 05:17:03;;;;;;;1.38;0.90;;;;;;;23.86;43.44;101354.75;5076930;28;20046;-77
2022/08/23 05:19:28;;;;;;;0.88;0.77;;;;;;;23.74;43.79;101363.84;5077848;28;20524;-77
2022/08/23 05:21:54;;;;;;;0.80;0.80;;;;;;;23.82;43.81;101365.34;5079066;28;20020;-77
2022/08/23 05:24:20;;;;;;;1.13;0.77;;;;;;;23.85;44.00;101364.00;5080288;28;20035;-77
2022/08/23 05:26:45;;;;;;;0.93;0.90;;;;;;;23.90;43.83;101362.16;5082165;28;20471;-77
2022/08/23 05:29:11;;;;;;;2.10;0.98;;;;;;;24.02;43.68;101359.31;5092222;28;20052;-77
2022/08/23 05:31:36;;;;;;;1.15;1.05;;;;;;;23.94;44.54;101368.78;5096498;28;20070;-77
2022/08/23 05:34:02;;;;;;;1.20;1.10;;;;;;;24.05;44.85;101375.19;5082823;28;20491;-76
2022/08/23 05:36:27;;;;;;;1.23;1.10;;;;;;;23.95;45.15;101380.53;5070163;28;20044;-76
2022/08/23 05:38:53;;;;;;;1.20;0.90;;;;;;;23.94;45.22;101376.13;5073258;28;20048;-77
2022/08/23 05:41:18;;;;;;;1.30;1.20;;;;;;;24.04;45.12;101373.53;5075930;28;20040;-78
2022/08/23 05:43:44;;;;;;;1.88;1.23;;;;;;;24.11;44.84;101379.66;5076031;28;20013;-77
2022/08/23 05:46:11;;;;;;;1.50;1.40;;;;;;;23.95;45.58;101380.53;5064175;28;20033;-77
2022/08/23 05:48:37;;;;;;;1.35;1.25;;;;;;;24.07;45.39;101388.59;5058006;28;20031;-77
2022/08/23 05:51:10;;;;;;;1.52;1.15;;;;;;;24.06;45.49;101387.78;5057061;28;20084;-76
2022/08/23 05:53:37;;;;;;;1.98;1.20;;;;;;;24.08;45.83;101388.34;5014679;28;20034;-76
2022/08/23 05:56:15;;;;;;;1.75;1.00;;;;;;;24.14;46.02;101381.84;5014429;28;20070;-76
2022/08/23 05:58:41;;;;;;;2.00;1.42;;;;;;;24.12;45.64;101386.75;4998475;28;20113;-76
2022/08/23 06:01:06;;;;;;;1.65;1.30;;;;;;;24.06;45.89;101392.41;5014475;28;20373;-76
2022/08/23 06:03:32;;;;;;;2.65;1.50;;;;;;;24.13;46.18;101393.88;5014189;28;20042;-76
2022/08/23 06:05:58;;;;;;;2.20;1.40;;;;;;;24.13;46.83;101396.59;5014507;28;20030;-76
2022/08/23 06:08:24;;;;;;;4.30;1.27;;;;;;;24.10;47.29;101404.47;5014315;28;20037;-76
2022/08/23 06:10:58;;;;;;;2.38;1.40;;;;;;;24.07;46.98;101394.88;5014960;28;20053;-77
2022/08/23 06:13:24;;;;;;;1.55;1.30;;;;;;;24.03;47.04;101393.75;4998300;28;20042;-75
2022/08/23 06:15:49;;;;;;;1.35;1.23;;;;;;;24.05;47.45;101394.31;5016106;28;20400;-77
2022/08/23 06:18:15;;;;;;;4.15;1.27;;;;;;;24.14;46.71;101395.50;5014138;28;20030;-75
2022/08/23 06:20:41;;;;;;;1.30;1.20;;;;;;;24.03;47.30;101399.22;5014391;28;20026;-76
2022/08/23 06:23:06;;;;;;;2.80;1.33;;;;;;;24.07;47.04;101389.41;5014934;28;20037;-76
2022/08/23 06:25:36;;;;;;;3.28;1.30;;;;;;;24.05;47.84;101391.56;5052010;28;20039;-76
2022/08/23 06:28:02;;;;;;;1.80;1.40;;;;;;;24.18;47.64;101402.13;5054896;28;20056;-76
2022/08/23 06:30:28;;;;;;;1.40;1.17;;;;;;;24.22;47.59;101398.91;5057013;28;20021;-78
2022/08/23 06:32:53;;;;;;;7.82;1.55;;;;;;;24.22;47.71;101401.63;5057695;28;20063;-75
2022/08/23 06:35:19;;;;;;;3.22;1.35;;;;;;;24.01;48.56;101401.38;5076848;28;20032;-76
2022/08/23 06:37:44;;;;;;;2.08;1.20;;;;;;;24.14;48.39;101402.88;5077018;28;20036;-77
2022/08/23 06:40:10;;;;;;;2.03;1.40;;;;;;;24.23;47.84;101389.59;5076784;28;20086;-77
2022/08/23 06:42:35;;;;;;;1.73;1.15;;;;;;;24.17;48.07;101395.00;5077218;28;20036;-77
2022/08/23 06:45:01;;;;;;;2.67;1.70;;;;;;;24.06;48.69;101390.50;5076121;28;20025;-76
2022/08/23 06:47:27;;;;;;;2.60;1.25;;;;;;;24.10;48.58;101399.84;5076103;28;20028;-76
2022/08/23 06:49:53;;;;;;;4.82;1.50;;;;;;;24.11;48.41;101404.22;5075981;28;20020;-76
2022/08/23 06:52:18;;;;;;;2.58;1.40;;;;;;;24.09;48.69;101402.81;5075646;28;20021;-77
2022/08/23 06:54:45;;;;;;;2.38;2.03;;;;;;;24.09;48.22;101403.63;5075732;28;20445;-76
2022/08/23 06:57:12;;;;;;;1.45;1.35;;;;;;;24.17;47.82;101405.94;5077000;28;20051;-77
2022/08/23 06:59:37;;;;;;;1.77;1.48;;;;;;;24.16;48.42;101408.91;5075220;28;20478;-76
2022/08/23 07:02:05;;;;;;;1.40;1.30;;;;;;;24.22;47.96;101407.09;5058652;28;20037;-78
2022/08/23 07:04:35;;;;;;;1.55;1.45;;;;;;;24.18;48.59;101413.06;5075832;28;20021;-77
2022/08/23 07:07:01;;;;;;;1.88;1.60;;;;;;;24.23;47.98;101408.72;5076295;28;20103;-77
2022/08/23 07:09:27;;;;;;;1.77;1.55;;;;;;;24.26;48.19;101414.50;5075648;28;20029;-76
2022/08/23 07:11:53;;;;;;;1.33;1.23;;;;;;;24.38;47.73;101417.91;5075513;28;20029;-77
2022/08/23 07:14:19;;;;;;;2.53;1.20;;;;;;;24.49;47.70;101423.50;5074732;28;20031;-77
2022/08/23 07:16:47;;;;;;;1.30;1.10;;;;;;;24.51;47.66;101435.03;5075199;28;20024;-77
2022/08/23 07:19:13;;;;;;;1.63;1.33;;;;;;;24.42;47.88;101429.16;5056918;28;20020;-77
2022/08/23 07:21:39;;;;;;;3.15;1.17;;;;;;;24.50;47.85;101436.91;5057258;28;20048;-77
2022/08/23 07:24:05;;;;;;;1.77;1.05;;;;;;;24.51;47.39;101433.13;5023232;28;20048;-77
2022/08/23 07:26:31;;;;;;;1.17;0.90;;;;;;;24.49;47.66;101440.75;5075073;28;20100;-78
2022/08/23 07:28:56;;;;;;;1.20;1.10;;;;;;;24.50;47.56;101438.84;5075499;28;20044;-76
2022/08/23 07:31:29;;;;;;;1.42;1.08;;;;;;;24.47;47.36;101433.88;5074928;28;20028;-76
2022/08/23 07:33:55;;;;;;;1.48;1.02;;;;;;;24.51;47.60;101438.56;5075893;28;20140;-78
2022/08/23 07:36:21;;;;;;;1.90;1.45;;;;;;;24.56;47.31;101440.59;5059961;28;20028;-78
2022/08/23 07:38:47;;;;;;;1.88;1.10;;;;;;;24.58;47.30;101440.31;5078811;28;20025;-77
2022/08/23 07:41:14;;;;;;;1.42;1.13;;;;;;;24.48;47.73;101444.56;5078844;28;20077;-77
2022/08/23 07:43:40;;;;;;;1.30;1.02;;;;;;;24.52;47.22;101440.22;5076255;28;20135;-77
2022/08/23 07:46:06;;;;;;;1.05;0.95;;;;;;;24.47;47.84;101431.94;5041129;28;20066;-77
2022/08/23 07:48:32;;;;;;;2.08;1.17;;;;;;;24.30;48.19;101442.97;5074521;28;20100;-75
2022/08/23 07:51:00;;;;;;;1.55;1.00;;;;;;;24.34;48.18;101440.56;5074779;28;20040;-75
2022/08/23 07:53:25;;;;;;;0.95;0.90;;;;;;;24.29;48.09;101438.59;5078354;28;20042;-77
2022/08/23 07:55:51;;;;;;;3.70;0.90;;;;;;;24.41;47.75;101438.47;5077599;28;20028;-77
2022/08/23 07:58:17;;;;;;;1.55;0.95;;;;;;;24.46;47.62;101441.25;5056623;28;20040;-75
2022/08/23 08:00:44;;;;;;;1.08;1.00;;;;;;;24.46;47.30;101434.97;5073922;28;20048;-78
2022/08/23 08:03:13;;;;;;;3.47;0.90;;;;;;;24.35;47.85;101434.00;5077011;28;20527;-77
2022/08/23 08:05:39;;;;;;;0.80;0.77;;;;;;;24.35;47.70;101440.31;5085447;28;20028;-77
2022/08/23 08:08:05;;;;;;;0.90;0.80;;;;;;;24.37;47.97;101442.78;5080541;28;20023;-78
2022/08/23 08:10:31;;;;;;;0.50;0.50;;;;;;;24.40;47.65;101445.00;5058923;28;20447;-76
2022/08/23 08:12:57;;;;;;;1.75;1.02;;;;;;;24.41;47.71;101443.94;5057297;28;20032;-77
2022/08/23 08:15:22;;;;;;;0.65;0.65;;;;;;;24.40;47.71;101452.38;5074571;28;20024;-76
2022/08/23 08:17:51;;;;;;;1.25;0.75;;;;;;;24.47;47.46;101450.25;5074411;28;20052;-77
2022/08/23 08:20:18;;;;;;;0.80;0.80;;;;;;;24.55;47.07;101450.66;5063190;28;20058;-77
2022/08/23 08:22:44;;;;;;;1.13;0.80;;;;;;;24.55;47.01;101452.59;5041958;28;20368;-76
2022/08/23 08:25:10;;;;;;;0.70;0.70;;;;;;;24.53;47.03;101447.34;5057236;28;20020;-75
2022/08/23 08:27:35;;;;;;;1.08;0.73;;;;;;;24.52;47.18;101445.69;5076678;28;20513;-76
2022/08/23 08:30:02;;;;;;;0.73;0.70;;;;;;;24.57;46.86;101455.88;5075410;28;20031;-76
2022/08/23 08:32:28;;;;;;;1.02;0.70;;;;;;;24.65;46.87;101446.41;5075172;28;20094;-76
2022/08/23 08:34:53;;;;;;;0.98;0.85;;;;;;;24.59;46.87;101448.25;5074882;28;20044;-76
2022/08/23 08:37:19;;;;;;;0.70;0.70;;;;;;;24.59;46.83;101445.50;5075187;28;20028;-77
2022/08/23 08:39:44;;;;;;;0.73;0.73;;;;;;;24.57;46.72;101442.22;5057189;28;20459;-78
2022/08/23 08:42:30;;;;;;;0.60;0.60;;;;;;;24.63;46.92;101441.22;5075079;28;20048;-77
2022/08/23 08:44:58;;;;;;;0.70;0.70;;;;;;;24.72;46.63;101438.84;5075871;28;20067;-77
2022/08/23 08:47:38;;;;;;;1.20;0.80;;;;;;;24.68;46.68;101427.59;5075448;28;20044;-77
2022/08/23 08:50:18;;;;;;;0.70;0.60;;;;;;;24.61;46.72;101431.59;5073947;28;20065;-77
2022/08/23 08:52:53;;;;;;;0.70;0.70;;;;;;;24.70;46.39;101424.63;5073585;28;20035;-77
2022/08/23 08:55:23;;;;;;;0.70;0.70;;;;;;;24.69;46.50;101423.75;5074585;28;20082;-76
2022/08/23 08:57:48;;;;;;;0.98;0.80;;;;;;;24.63;46.72;101429.44;5057112;28;20103;-76
2022/08/23 09:00:20;;;;;;;0.57;0.57;;;;;;;24.58;46.66;101419.28;5057987;28;20109;-73
2022/08/23 09:02:45;;;;;;;0.57;0.57;;;;;;;24.48;47.12;101432.81;5074824;28;20032;-74
2022/08/23 09:05:19;;;;;;;0.95;0.80;;;;;;;24.55;46.92;101423.34;5075797;28;20375;-73
2022/08/23 09:07:57;;;;;;;;;;;;;;;24.57;47.04;101425.00;5074223;28;20042;-73
2022/08/23 09:10:46;;;;;;;1.85;0.70;;;;;;;24.65;46.88;101416.34;5073663;28;19916;-73
2022/08/23 09:13:36;;;;;;;0.70;0.70;;;;;;;24.57;47.23;101422.28;5055632;28;20418;-73
2022/08/23 09:16:16;;;;;;;1.33;0.80;;;;;;;24.64;46.91;101420.16;5073590;28;20037;-74
2022/08/23 09:18:45;;;;;;;1.63;0.80;;;;;;;24.50;47.38;101426.00;5055264;28;20086;-73
2022/08/23 09:21:10;;;;;;;1.73;0.70;;;;;;;24.47;47.02;101426.50;5055068;28;20049;-73
2022/08/23 09:23:40;;;;;;;0.60;0.60;;;;;;;24.53;46.74;101422.75;5054283;28;20352;-72
2022/08/23 09:26:25;;;;;;;1.63;0.70;;;;;;;24.60;46.35;101417.13;5072216;28;20078;-75
2022/08/23 09:28:58;;;;;;;0.98;0.68;;;;;;;24.55;46.78;101412.41;5072946;28;20035;-73
2022/08/23 09:31:41;;;;;;;0.85;0.85;;;;;;;24.55;46.42;101409.69;5072493;28;20036;-71
2022/08/23 09:34:07;;;;;;;0.70;0.70;;;;;;;24.57;46.50;101414.06;5072267;28;20051;-71
2022/08/23 09:36:36;;;;;;;1.25;0.73;;;;;;;24.61;46.31;101409.75;5072702;28;20048;-72
2022/08/23 09:39:31;;;;;;;2.30;0.80;;;;;;;24.50;46.44;101420.53;5072755;28;20062;-71
2022/08/23 09:41:57;;;;;;;0.60;0.60;;;;;;;24.52;46.75;101415.63;5072136;28;20060;-71
2022/08/23 09:44:36;;;;;;;1.23;0.80;;;;;;;24.57;46.35;101414.06;5072474;28;20064;-71
2022/08/23 09:47:15;;;;;;;0.50;0.50;;;;;;;24.59;46.24;101406.44;5072715;28;20467;-72
2022/08/23 09:49:43;;;;;;;0.68;0.68;;;;;;;24.52;46.78;101415.63;5072198;28;20028;-71
2022/08/23 09:52:18;;;;;;;2.35;0.77;;;;;;;24.64;46.16;101409.22;5072123;28;20483;-73
2022/08/23 09:54:43;;;;;;;2.00;0.73;;;;;;;24.57;46.30;101409.44;5054792;28;20104;-72
2022/08/23 09:57:09;;;;;;;0.65;0.63;;;;;;;24.54;46.38;101405.31;5037530;28;20040;-71
2022/08/23 09:59:42;;;;;;;1.95;0.60;;;;;;;24.50;46.69;101417.78;5072251;28;20470;-71
2022/08/23 10:02:20;;;;;;;0.60;0.60;;;;;;;24.50;46.41;101409.59;5072265;28;20557;-71
2022/08/23 10:04:55;;;;;;;2.13;1.20;;;;;;;24.48;46.07;101410.94;5075347;28;20056;-71
2022/08/23 10:07:27;;;;;;;3.00;1.48;;;;;;;24.61;45.95;101407.00;5075942;28;20033;-71
2022/08/23 10:09:53;;;;;;;3.15;1.33;;;;;;;24.58;45.85;101408.34;5075723;28;20036;-71
2022/08/23 10:12:18;;;;;;;1.65;1.10;;;;;;;24.49;45.82;101402.50;5075921;28;20070;-71
2022/08/23 10:14:44;;;;;;;4.03;1.08;;;;;;;24.55;45.57;101401.47;5076396;28;20059;-71
2022/08/23 10:17:27;;;;;;;1.52;1.17;;;;;;;24.59;45.42;101407.25;5057821;28;20043;-71
2022/08/23 10:20:31;;;;;;;2.13;1.38;;;;;;;24.59;45.63;101406.44;5058520;28;20028;-71
2022/08/23 10:23:23;;;;;;;1.90;1.30;;;;;;;24.60;45.42;101405.38;5076060;28;20098;-70
2022/08/23 10:26:10;;;;;;;3.15;1.40;;;;;;;24.63;45.72;101396.63;5076017;28;20033;-70
2022/08/23 10:31:50;;;;;;;1.08;0.98;;;;;;;24.61;45.25;101390.59;5077202;28;20087;-70
2022/08/23 10:34:23;;;;;;;1.20;0.90;;;;;;;24.64;45.39;101390.09;5080051;28;20107;-72
2022/08/23 10:37:30;;;;;;;1.92;0.95;;;;;;;24.66;45.32;101391.47;5079235;28;20052;-70
2022/08/23 10:39:58;;;;;;;0.70;0.70;;;;;;;24.65;44.96;101394.50;5068945;28;20126;-70
2022/08/23 10:42:41;;;;;;;0.73;0.73;;;;;;;24.64;44.78;101395.56;5088441;28;20047;-72
2022/08/23 10:45:27;;;;;;;1.00;0.90;;;;;;;24.68;44.32;101389.34;5070837;28;20094;-70
2022/08/23 10:48:12;;;;;;;2.17;0.85;;;;;;;24.79;44.39;101384.78;5066885;28;20024;-71
2022/08/23 10:50:44;;;;;;;;;;;;;;;24.81;43.98;101385.34;5085794;28;20040;-70
2022/08/23 10:53:14;;;;;;;3.25;2.13;;;;;;;24.68;43.86;101394.81;5059984;28;19974;-71
2022/08/23 10:56:01;;;;;;;6.00;2.38;;;;;;;24.70;43.99;101389.91;5041386;28;20087;-71
2022/08/23 10:58:27;;;;;;;2.28;1.58;;;;;;;24.68;43.92;101389.34;5045658;28;20041;-71
2022/08/23 11:00:53;;;;;;;4.45;1.50;;;;;;;24.71;44.01;101386.06;5041708;28;20049;-71
2022/08/23 11:03:35;;;;;;;2.60;1.60;;;;;;;24.70;43.80;101381.69;5056911;28;20112;-70
2022/08/23 11:06:24;;;;;;;3.47;1.27;;;;;;;24.72;43.78;101384.16;5041192;28;20028;-70
2022/08/23 11:09:16;;;;;;;1.00;0.90;;;;;;;24.68;43.57;101377.56;5057590;28;20033;-70
2022/08/23 11:11:59;;;;;;;2.10;1.10;;;;;;;24.65;43.91;101384.38;5074689;28;20052;-69
2022/08/23 11:14:30;;;;;;;1.50;1.00;;;;;;;24.66;43.80;101380.53;5074647;28;20036;-70
2022/08/23 11:17:24;;;;;;;2.20;1.23;;;;;;;24.80;43.38;101380.97;5075159;28;20115;-71
2022/08/23 11:20:00;;;;;;;0.80;0.80;;;;;;;24.69;43.77;101373.75;5075460;28;20028;-69
2022/08/23 11:22:32;;;;;;;1.80;1.05;;;;;;;24.82;43.41;101381.53;5057157;28;20044;-70
2022/08/23 11:25:20;;;;;;;2.28;1.00;;;;;;;24.82;43.44;101384.28;5023433;28;20029;-70
2022/08/23 11:27:45;;;;;;;0.90;0.70;;;;;;;24.75;43.75;101383.66;5060694;28;20037;-70
2022/08/23 11:30:35;;;;;;;1.58;0.98;;;;;;;24.79;43.61;101387.53;5074726;28;20398;-70
2022/08/23 11:33:18;;;;;;;0.93;0.70;;;;;;;24.77;43.66;101375.19;5074431;28;20037;-70
2022/08/23 11:35:52;;;;;;;2.65;0.88;;;;;;;24.76;43.40;101373.53;5073958;28;20028;-70
2022/08/23 11:38:43;;;;;;;1.38;1.02;;;;;;;24.79;43.55;101364.84;5074359;28;20032;-70
2022/08/23 11:41:27;;;;;;;1.20;1.00;;;;;;;24.84;43.50;101371.16;5074023;28;20032;-69
2022/08/23 11:43:59;;;;;;;1.08;0.88;;;;;;;24.90;43.04;101375.56;5074635;28;20033;-69
2022/08/23 11:46:25;;;;;;;1.08;0.80;;;;;;;24.88;43.33;101369.53;5074512;28;20047;-69
2022/08/23 11:49:05;;;;;;;4.57;1.08;;;;;;;24.86;43.47;101363.53;5074036;28;20021;-69